createdAt,value
2022-07-29T00:01:59.529Z,2.25
2022-07-29T00:07:02.851Z,2.33
2022-07-29T00:12:06.322Z,2.17
2022-07-29T00:17:12.653Z,2.10
2022-07-29T00:22:22.154Z,2.17
2022-07-29T00:27:25.032Z,2.40
2022-07-29T00:32:29.265Z,2.20
2022-07-29T00:37:32.108Z,2.15
2022-07-29T00:42:51.013Z,2.25
2022-07-29T00:47:53.812Z,2.20
2022-07-29T00:52:56.886Z,2.03
2022-07-29T00:58:00.847Z,2.17
2022-07-29T01:03:04.618Z,2.40
2022-07-29T01:08:08.899Z,2.22
2022-07-29T01:13:13.009Z,2.20
2022-07-29T01:18:35.110Z,2.20
2022-07-29T01:24:28.300Z,2.30
2022-07-29T01:29:42.637Z,2.20
2022-07-29T01:35:02.953Z,2.40
2022-07-29T01:40:12.120Z,2.20
2022-07-29T01:46:01.899Z,2.03
2022-07-29T01:51:28.531Z,2.20
2022-07-29T01:56:34.749Z,2.40
2022-07-29T02:01:40.763Z,2.40
2022-07-29T02:06:45.464Z,2.58
2022-07-29T02:11:54.473Z,2.22
2022-07-29T02:16:59.431Z,2.20
2022-07-29T02:22:03.067Z,2.22
2022-07-29T02:27:06.044Z,2.40
2022-07-29T02:32:12.246Z,2.30
2022-07-29T02:37:18.079Z,2.60
2022-07-29T02:42:25.052Z,2.38
2022-07-29T02:47:41.525Z,2.58
2022-07-29T02:53:13.122Z,2.58
2022-07-29T02:58:38.584Z,2.20
2022-07-29T03:03:45.712Z,2.67
2022-07-29T03:08:50.544Z,2.42
2022-07-29T03:13:54.012Z,2.90
2022-07-29T03:18:57.275Z,4.88
2022-07-29T03:24:00.122Z,2.92
2022-07-29T03:29:03.111Z,2.80
2022-07-29T03:34:05.957Z,2.50
2022-07-29T03:39:11.904Z,2.90
2022-07-29T03:44:16.877Z,2.45
2022-07-29T03:49:22.881Z,2.55
2022-07-29T03:54:25.835Z,3.30
2022-07-29T03:59:31.534Z,3.25
2022-07-29T04:04:36.252Z,3.30
2022-07-29T04:09:39.241Z,3.30
2022-07-29T04:14:44.856Z,3.10
2022-07-29T04:19:47.703Z,3.10
2022-07-29T04:24:50.506Z,3.22
2022-07-29T04:29:56.744Z,3.45
2022-07-29T04:35:00.400Z,3.22
2022-07-29T04:40:04.615Z,3.10
2022-07-29T04:45:08.009Z,3.40
2022-07-29T04:50:11.671Z,3.47
2022-07-29T04:55:14.525Z,3.40
2022-07-29T05:00:17.953Z,2.90
2022-07-29T05:05:20.848Z,3.33
2022-07-29T05:10:24.146Z,3.10
2022-07-29T05:15:26.964Z,3.83
2022-07-29T05:20:31.605Z,3.00
2022-07-29T05:25:43.433Z,3.10
2022-07-29T05:30:48.160Z,2.90
2022-07-29T05:35:50.992Z,2.90
2022-07-29T05:40:53.758Z,3.28
2022-07-29T05:45:57.335Z,3.03
2022-07-29T05:51:00.273Z,2.83
2022-07-29T05:56:06.664Z,2.90
2022-07-29T06:01:09.461Z,3.40
2022-07-29T06:06:12.407Z,2.88
2022-07-29T06:11:15.205Z,2.90
2022-07-29T06:16:28.885Z,3.22
2022-07-29T06:21:33.402Z,3.80
2022-07-29T06:26:39.741Z,3.35
2022-07-29T06:31:43.006Z,4.05
2022-07-29T06:36:46.022Z,3.08
2022-07-29T06:41:51.572Z,3.75
2022-07-29T06:46:55.771Z,3.03
2022-07-29T06:51:58.649Z,3.42
2022-07-29T06:57:01.408Z,3.30
2022-07-29T07:02:04.412Z,2.95
2022-07-29T07:07:07.276Z,3.22
2022-07-29T07:12:10.400Z,3.40
2022-07-29T07:17:13.122Z,3.40
2022-07-29T07:22:15.985Z,2.90
2022-07-29T07:27:18.938Z,3.30
2022-07-29T07:32:21.817Z,3.70
2022-07-29T07:37:25.841Z,3.15
2022-07-29T07:42:29.136Z,2.95
2022-07-29T07:47:32.147Z,3.35
2022-07-29T07:52:51.714Z,3.58
2022-07-29T07:57:55.860Z,3.47
2022-07-29T08:02:58.755Z,3.10
2022-07-29T08:08:01.621Z,3.25
2022-07-29T08:13:07.641Z,3.08
2022-07-29T08:18:10.797Z,2.92
2022-07-29T08:23:13.581Z,2.90
2022-07-29T08:28:16.801Z,3.25
2022-07-29T08:33:19.643Z,3.22
2022-07-29T08:38:22.668Z,3.05
2022-07-29T08:43:26.645Z,3.03
2022-07-29T08:48:29.465Z,3.03
2022-07-29T08:53:33.238Z,3.10
2022-07-29T08:58:36.851Z,3.10
2022-07-29T09:03:42.566Z,2.92
2022-07-29T09:08:47.631Z,3.25
2022-07-29T09:13:50.941Z,2.83
2022-07-29T09:18:53.817Z,2.92
2022-07-29T09:24:12.765Z,2.92
2022-07-29T09:34:29.515Z,2.90
2022-07-29T09:39:38.233Z,2.60
2022-07-29T09:44:50.334Z,2.78
2022-07-29T09:49:59.366Z,2.53
2022-07-29T09:55:17.847Z,3.03
2022-07-29T10:00:24.017Z,2.85
2022-07-29T10:05:36.618Z,2.65
2022-07-29T10:10:43.142Z,2.90
2022-07-29T10:15:47.366Z,2.58
2022-07-29T10:20:51.104Z,2.47
2022-07-29T10:25:54.338Z,2.50
2022-07-29T10:31:06.444Z,2.38
2022-07-29T10:37:06.462Z,2.22
2022-07-29T10:42:34.359Z,2.42
2022-07-29T10:53:04.913Z,3.03
2022-07-29T10:58:24.695Z,2.65
2022-07-29T11:03:49.266Z,2.38
2022-07-29T11:09:35.309Z,2.15
2022-07-29T11:14:53.239Z,2.40
2022-07-29T11:20:45.786Z,2.42
2022-07-29T11:26:28.315Z,2.20
2022-07-29T11:31:49.440Z,2.50
2022-07-29T11:37:13.662Z,2.50
2022-07-29T11:42:28.276Z,1.98
2022-07-29T11:47:39.700Z,2.17
2022-07-29T11:52:49.891Z,2.25
2022-07-29T11:58:03.961Z,1.77
2022-07-29T12:03:10.451Z,2.05
2022-07-29T12:08:20.910Z,2.78
2022-07-29T12:13:37.408Z,2.22
2022-07-29T12:18:40.864Z,2.20
2022-07-29T12:23:55.288Z,2.35
2022-07-29T12:28:58.336Z,2.00
2022-07-29T12:34:05.369Z,1.80
2022-07-29T12:39:10.135Z,2.25
2022-07-29T12:44:13.122Z,2.60
2022-07-29T12:49:24.092Z,1.98
2022-07-29T12:54:27.255Z,2.00
2022-07-29T12:59:30.138Z,1.77
2022-07-29T13:04:36.625Z,1.90
2022-07-29T13:09:42.944Z,1.85
2022-07-29T13:14:48.997Z,2.10
2022-07-29T13:19:54.484Z,2.30
2022-07-29T13:25:07.635Z,2.13
2022-07-29T13:30:11.675Z,1.88
2022-07-29T13:35:14.615Z,1.67
2022-07-29T13:40:17.396Z,2.28
2022-07-29T13:45:20.275Z,2.35
2022-07-29T13:50:23.142Z,2.42
2022-07-29T13:55:26.671Z,1.92
2022-07-29T14:00:29.635Z,2.33
2022-07-29T14:05:32.470Z,2.40
2022-07-29T14:10:35.252Z,1.95
2022-07-29T14:15:39.392Z,2.08
2022-07-29T14:20:42.453Z,2.30
2022-07-29T14:25:45.302Z,2.60
2022-07-29T14:30:48.782Z,2.50
2022-07-29T14:35:51.829Z,2.10
2022-07-29T14:40:54.624Z,2.10
2022-07-29T14:46:02.881Z,2.22
2022-07-29T14:51:08.815Z,2.30
2022-07-29T14:56:35.427Z,2.15
2022-07-29T15:01:34.627Z,1.95
2022-07-29T15:06:37.507Z,2.00
2022-07-29T15:11:40.323Z,2.20
2022-07-29T15:16:46.486Z,2.10
2022-07-29T15:21:51.183Z,2.30
2022-07-29T15:26:54.739Z,2.15
2022-07-29T15:31:58.078Z,2.20
2022-07-29T15:37:01.669Z,1.98
2022-07-29T15:42:04.977Z,2.30
2022-07-29T15:47:07.920Z,1.95
2022-07-29T15:52:11.331Z,2.53
2022-07-29T15:57:15.402Z,2.35
2022-07-29T16:02:18.233Z,2.53
2022-07-29T16:07:21.255Z,1.65
2022-07-29T16:12:26.930Z,2.35
2022-07-29T16:17:29.895Z,2.58
2022-07-29T16:22:32.801Z,2.35
2022-07-29T16:27:37.771Z,2.50
2022-07-29T16:32:41.100Z,2.05
2022-07-29T16:37:43.943Z,2.28
2022-07-29T16:42:47.474Z,2.30
2022-07-29T16:47:50.623Z,2.13
2022-07-29T16:52:54.208Z,2.33
2022-07-29T16:57:57.828Z,2.15
2022-07-29T17:03:00.664Z,2.15
2022-07-29T17:08:03.698Z,2.50
2022-07-29T17:13:06.526Z,2.60
2022-07-29T17:18:13.246Z,2.25
2022-07-29T17:23:15.986Z,2.60
2022-07-29T17:28:18.886Z,2.95
2022-07-29T17:33:21.670Z,3.40
2022-07-29T17:38:24.505Z,2.50
2022-07-29T17:43:27.265Z,2.40
2022-07-29T17:48:30.212Z,2.47
2022-07-29T17:53:33.096Z,2.60
2022-07-29T17:58:35.975Z,2.50
2022-07-29T18:03:38.879Z,2.45
2022-07-29T18:08:41.908Z,2.30
2022-07-29T18:13:44.881Z,2.47
2022-07-29T18:18:47.873Z,3.72
2022-07-29T18:23:52.703Z,2.65
2022-07-29T18:28:55.450Z,2.42
2022-07-29T18:34:00.085Z,2.35
2022-07-29T18:39:03.320Z,2.30
2022-07-29T18:44:06.124Z,2.20
2022-07-29T18:49:09.329Z,2.55
2022-07-29T18:54:12.940Z,2.85
2022-07-29T18:59:17.236Z,2.28
2022-07-29T19:04:20.034Z,2.58
2022-07-29T19:09:22.906Z,2.70
2022-07-29T19:14:25.817Z,2.47
2022-07-29T19:19:28.682Z,2.70
2022-07-29T19:24:31.455Z,2.30
2022-07-29T19:29:35.355Z,2.58
2022-07-29T19:34:38.402Z,2.67
2022-07-29T19:39:41.229Z,2.20
2022-07-29T19:44:44.065Z,2.80
2022-07-29T19:49:46.854Z,2.55
2022-07-29T19:54:49.700Z,2.25
2022-07-29T19:59:52.972Z,2.80
2022-07-29T20:04:55.780Z,2.90
2022-07-29T20:09:58.748Z,2.25
2022-07-29T20:15:02.017Z,2.45
2022-07-29T20:20:06.253Z,2.75
2022-07-29T20:25:10.111Z,2.58
2022-07-29T20:30:14.220Z,2.63
2022-07-29T20:35:17.047Z,2.58
2022-07-29T20:40:23.260Z,3.05
2022-07-29T20:45:26.506Z,2.80
2022-07-29T20:50:29.249Z,3.13
2022-07-29T20:55:32.938Z,2.75
2022-07-29T21:00:35.920Z,2.22
2022-07-29T21:05:39.005Z,2.75
2022-07-29T21:10:45.838Z,2.80
2022-07-29T21:15:50.212Z,2.42
2022-07-29T21:20:55.523Z,2.90
2022-07-29T21:25:58.992Z,3.08
2022-07-29T21:31:06.833Z,2.70
2022-07-29T21:36:46.124Z,2.85
2022-07-29T21:41:35.314Z,2.38
2022-07-29T21:46:38.369Z,2.75
2022-07-29T21:51:41.408Z,3.00
2022-07-29T21:56:44.243Z,2.83
2022-07-29T22:01:54.185Z,2.78
2022-07-29T22:06:58.811Z,2.88
2022-07-29T22:12:02.711Z,2.40
2022-07-29T22:17:05.559Z,2.70
2022-07-29T22:22:08.599Z,2.67
2022-07-29T22:27:11.791Z,2.58
2022-07-29T22:32:14.594Z,2.72
2022-07-29T22:37:17.634Z,2.90
2022-07-29T22:42:20.474Z,3.05
2022-07-29T22:47:38.712Z,3.33
2022-07-29T22:52:47.157Z,3.63
2022-07-29T22:57:50.430Z,2.95
2022-07-29T23:02:53.180Z,3.15
2022-07-29T23:07:56.113Z,3.15
2022-07-29T23:12:58.937Z,3.17
2022-07-29T23:18:01.841Z,2.95
2022-07-29T23:23:04.979Z,2.90
2022-07-29T23:28:11.631Z,3.00
2022-07-29T23:33:16.159Z,3.35
2022-07-29T23:38:19.035Z,2.65
2022-07-29T23:43:21.743Z,3.08
2022-07-29T23:48:24.798Z,3.20
2022-07-29T23:53:28.604Z,2.70
2022-07-29T23:58:32.023Z,3.17
